Time;durP1;ratioP1;P1;durP2;ratioP2;P2;SDS_P1;SDS_P2;PMS_P1;PMS_P2;Temp;Humidity;BMP_temperature;BMP_pressure;BME280_temperature;BME280_humidity;BME280_pressure;Samples;Min_cycle;Max_cycle;Signal;HPM_P1;HPM_P2
2023/03/23 00:01:20;;;;;;;;;;;10.20;99.90;;;;;;5112440;28;19924;-68
2023/03/23 00:03:47;;;;;;;;;;;10.30;99.90;;;;;;5094366;28;19985;-68
2023/03/23 00:06:17;;;;;;;;;;;10.30;99.90;;;;;;5094050;28;20377;-67
2023/03/23 00:08:47;;;;;;;;;;;10.20;99.90;;;;;;5094559;28;19924;-69
2023/03/23 00:11:18;;;;;;;;;;;10.30;99.90;;;;;;5093920;28;19932;-68
2023/03/23 00:13:45;;;;;;;;;;;10.30;99.90;;;;;;5112563;28;19924;-68
2023/03/23 00:16:17;;;;;;;;;;;10.30;99.90;;;;;;5112076;28;19920;-68
2023/03/23 00:18:52;;;;;;;;;;;10.30;99.90;;;;;;5112201;28;19930;-67
2023/03/23 00:21:25;;;;;;;;;;;10.30;99.90;;;;;;5111673;28;19971;-68
2023/03/23 00:23:53;;;;;;;;;;;10.30;99.90;;;;;;5094397;28;20338;-67
2023/03/23 00:26:19;;;;;;;;;;;10.20;99.90;;;;;;5112264;28;19924;-68
2023/03/23 00:28:46;;;;;;;;;;;10.20;99.90;;;;;;5112097;28;20404;-68
2023/03/23 00:31:12;;;;;;;;;;;10.10;99.90;;;;;;5077120;28;19924;-67
2023/03/23 00:33:40;;;;;;;;;;;10.10;99.90;;;;;;5112270;28;19924;-67
2023/03/23 00:36:10;;;;;;;;;;;10.10;99.90;;;;;;5111874;28;20330;-67
2023/03/23 00:38:36;;;;;;;;;;;10.10;99.90;;;;;;5112121;28;19924;-68
2023/03/23 00:41:04;;;;;;;;;;;10.10;99.90;;;;;;5115228;28;19924;-67
2023/03/23 00:43:30;;;;;;;;;;;10.10;99.90;;;;;;5115825;28;20368;-66
2023/03/23 00:45:56;;;;;;;;;;;10.10;99.90;;;;;;5115002;28;19931;-68
2023/03/23 00:48:23;;;;;;;;;;;10.20;99.90;;;;;;5097544;28;19946;-67
2023/03/23 00:50:49;;;;;;;;;;;10.10;99.90;;;;;;5098023;28;19924;-67
2023/03/23 00:53:15;;;;;;;;;;;10.20;99.90;;;;;;5097065;28;19980;-66
2023/03/23 00:55:42;;;;;;;;;;;10.10;99.90;;;;;;5115492;28;20384;-66
2023/03/23 00:58:08;;;;;;;;;;;10.20;99.90;;;;;;5115312;28;19924;-66
2023/03/23 01:00:33;;;;;;;;;;;10.30;99.90;;;;;;5115683;28;19924;-67
2023/03/23 01:02:59;;;;;;;;;;;10.30;99.90;;;;;;5115161;28;19923;-67
2023/03/23 01:05:31;;;;;;;;;;;10.30;99.90;;;;;;5097265;28;19924;-68
2023/03/23 01:07:58;;;;;;;;;;;9.40;99.90;;;;;;5115375;28;19934;-69
2023/03/23 01:10:26;;;;;;;;;;;10.40;99.90;;;;;;5097576;28;20411;-68
2023/03/23 01:12:52;;;;;;;;;;;10.40;99.90;;;;;;5097581;28;19924;-68
2023/03/23 01:15:18;;;;;;;;;;;10.40;99.90;;;;;;5115108;28;20087;-68
2023/03/23 01:17:44;;;;;;;;;;;10.40;99.90;;;;;;5115231;28;20022;-66
2023/03/23 01:20:11;;;;;;;;;;;10.40;99.90;;;;;;5114996;28;20365;-67
2023/03/23 01:22:39;;;;;;;;;;;10.40;99.90;;;;;;5097393;28;19928;-67
2023/03/23 01:25:05;;;;;;;;;;;10.30;99.90;;;;;;5114862;28;19924;-67
2023/03/23 01:27:30;;;;;;;;;;;10.30;99.90;;;;;;5115128;28;19931;-67
2023/03/23 01:29:56;;;;;;;;;;;10.30;99.90;;;;;;5115160;28;19928;-67
2023/03/23 01:32:22;;;;;;;;;;;9.80;99.90;;;;;;5114735;28;19931;-67
2023/03/23 01:34:47;;;;;;;;;;;10.20;99.90;;;;;;5097007;28;19927;-67
2023/03/23 01:37:13;;;;;;;;;;;10.20;99.90;;;;;;5096519;28;20315;-67
2023/03/23 01:39:38;;;;;;;;;;;10.20;99.90;;;;;;5096231;28;19996;-67
2023/03/23 01:42:04;;;;;;;;;;;10.10;99.90;;;;;;5096525;28;19931;-67
2023/03/23 01:44:30;;;;;;;;;;;10.20;99.90;;;;;;5114915;28;19977;-67
2023/03/23 01:46:56;;;;;;;;;;;10.30;99.90;;;;;;5096573;28;20125;-68
2023/03/23 01:49:23;;;;;;;;;;;10.30;99.90;;;;;;5114247;28;19984;-67
2023/03/23 01:51:51;;;;;;;;;;;10.30;99.90;;;;;;5113930;28;19923;-67
2023/03/23 01:54:20;;;;;;;;;;;10.40;99.90;;;;;;5113884;28;20384;-67
2023/03/23 01:56:54;;;;;;;;;;;10.40;99.90;;;;;;5114635;28;19934;-68
2023/03/23 01:59:20;;;;;;;;;;;10.50;99.90;;;;;;5114258;28;19928;-67
2023/03/23 02:01:46;;;;;;;;;;;10.40;99.90;;;;;;5114368;28;19931;-66
2023/03/23 02:04:14;;;;;;;;;;;10.50;99.90;;;;;;5113853;28;19924;-67
2023/03/23 02:06:39;;;;;;;;;;;10.60;99.90;;;;;;5114309;28;19931;-66
2023/03/23 02:09:06;;;;;;;;;;;10.50;99.90;;;;;;5096131;28;19924;-67
2023/03/23 02:11:31;;;;;;;;;;;10.60;99.90;;;;;;5114177;28;19924;-67
2023/03/23 02:13:57;;;;;;;;;;;10.60;99.90;;;;;;5079136;28;19924;-67
2023/03/23 02:16:42;;;;;;;;;;;10.70;99.90;;;;;;5113103;28;19923;-67
2023/03/23 02:19:24;;;;;;;;;;;10.70;99.90;;;;;;5113856;28;19924;-68
2023/03/23 02:21:52;;;;;;;;;;;10.70;99.90;;;;;;5113243;28;20434;-67
2023/03/23 02:24:18;;;;;;;;;;;10.60;99.90;;;;;;5113398;28;19923;-67
2023/03/23 02:26:43;;;;;;;;;;;10.60;99.90;;;;;;5113995;28;19931;-67
2023/03/23 02:29:28;;;;;;;;;;;10.70;99.90;;;;;;5113511;28;19930;-67
2023/03/23 02:32:02;;;;;;;;;;;10.70;99.90;;;;;;5113759;28;19954;-68
2023/03/23 02:34:31;;;;;;;;;;;10.70;99.90;;;;;;5078322;28;19930;-68
2023/03/23 02:37:02;;;;;;;;;;;10.70;99.90;;;;;;5095707;28;20140;-67
2023/03/23 02:39:54;;;;;;;;;;;10.70;99.90;;;;;;5095161;28;20056;-68
2023/03/23 02:42:39;;;;;;;;;;;10.80;99.90;;;;;;5073697;28;19927;-67
2023/03/23 02:45:07;;;;;;;;;;;10.80;99.90;;;;;;5095828;28;20284;-67
2023/03/23 02:47:33;;;;;;;;;;;10.90;99.90;;;;;;5094897;28;19924;-67
2023/03/23 02:49:59;;;;;;;;;;;10.80;99.90;;;;;;5113792;28;19924;-68
2023/03/23 02:52:27;;;;;;;;;;;10.80;99.90;;;;;;5113309;28;20284;-66
2023/03/23 02:54:54;;;;;;;;;;;10.80;99.90;;;;;;5113464;28;20010;-66
2023/03/23 02:57:20;;;;;;;;;;;10.80;99.90;;;;;;5112884;28;19924;-67
2023/03/23 02:59:46;;;;;;;;;;;10.80;99.90;;;;;;5113306;28;19924;-67
2023/03/23 03:02:20;;;;;;;;;;;10.80;99.90;;;;;;5112976;28;19936;-68
2023/03/23 03:04:48;;;;;;;;;;;10.80;99.90;;;;;;5094110;28;19924;-67
2023/03/23 03:07:35;;;;;;;;;;;10.80;99.90;;;;;;5112709;28;19923;-68
2023/03/23 03:10:11;;;;;;;;;;;10.80;99.90;;;;;;5061842;28;20014;-67
2023/03/23 03:12:44;;;;;;;;;;;10.90;99.90;;;;;;5078002;28;19927;-68
2023/03/23 03:15:10;;;;;;;;;;;10.90;99.90;;;;;;5095258;28;20006;-67
2023/03/23 03:17:39;;;;;;;;;;;10.90;99.90;;;;;;5094359;28;20022;-67
2023/03/23 03:20:09;;;;;;;;;;;10.90;99.90;;;;;;5113139;28;19923;-67
2023/03/23 03:22:37;;;;;;;;;;;10.90;99.90;;;;;;5112567;28;19920;-67
2023/03/23 03:25:03;;;;;;;;;;;10.80;99.90;;;;;;5112815;28;19924;-67
2023/03/23 03:27:31;;;;;;;;;;;10.80;99.90;;;;;;5112585;28;19924;-67
2023/03/23 03:29:59;;;;;;;;;;;10.80;99.90;;;;;;5078186;28;19934;-67
2023/03/23 03:32:30;;;;;;;;;;;10.80;99.90;;;;;;5094403;28;19972;-67
2023/03/23 03:34:58;;;;;;;;;;;10.80;99.90;;;;;;5112368;28;20493;-67
2023/03/23 03:37:24;;;;;;;;;;;10.80;99.90;;;;;;5077241;28;20031;-67
2023/03/23 03:39:51;;;;;;;;;;;10.80;99.90;;;;;;5094616;28;19975;-67
2023/03/23 03:42:16;;;;;;;;;;;10.90;99.90;;;;;;5112489;28;19927;-67
2023/03/23 03:44:42;;;;;;;;;;;10.80;99.90;;;;;;5077825;28;19931;-67
2023/03/23 03:47:07;;;;;;;;;;;10.90;99.90;;;;;;5094121;28;20445;-66
2023/03/23 03:49:33;;;;;;;;;;;10.80;99.90;;;;;;5112465;28;20003;-66
2023/03/23 03:51:58;;;;;;;;;;;10.80;99.90;;;;;;5094438;28;19930;-67
2023/03/23 03:54:24;;;;;;;;;;;10.90;99.90;;;;;;5112061;28;20269;-67
2023/03/23 03:56:51;;;;;;;;;;;10.90;99.90;;;;;;5112441;28;19985;-68
2023/03/23 03:59:17;;;;;;;;;;;10.90;99.90;;;;;;5094390;28;19935;-67
2023/03/23 04:01:43;;;;;;;;;;;10.90;99.90;;;;;;5112486;28;19924;-68
2023/03/23 04:04:08;;;;;;;;;;;10.90;99.90;;;;;;5112441;28;20399;-68
2023/03/23 04:06:35;;;;;;;;;;;10.80;99.90;;;;;;5112078;28;20018;-68
2023/03/23 04:09:05;;;;;;;;;;;10.80;99.90;;;;;;5093035;28;19923;-68
2023/03/23 04:11:31;;;;;;;;;;;10.70;99.90;;;;;;5112132;28;19924;-68
2023/03/23 04:13:57;;;;;;;;;;;10.60;99.90;;;;;;5112677;28;19928;-67
2023/03/23 04:16:22;;;;;;;;;;;10.60;99.90;;;;;;5116380;28;20414;-69
2023/03/23 04:18:48;;;;;;;;;;;10.60;99.90;;;;;;5098333;28;19931;-68
2023/03/23 04:21:14;;;;;;;;;;;10.60;99.90;;;;;;5116530;28;20019;-68
2023/03/23 04:23:40;;;;;;;;;;;10.50;99.90;;;;;;5116185;28;19923;-67
2023/03/23 04:26:06;;;;;;;;;;;10.40;99.90;;;;;;5116548;28;19931;-68
2023/03/23 04:28:33;;;;;;;;;;;10.30;99.90;;;;;;5081080;28;19923;-68
2023/03/23 04:31:00;;;;;;;;;;;10.30;99.90;;;;;;5116167;28;20325;-68
2023/03/23 04:33:27;;;;;;;;;;;10.30;99.90;;;;;;5081206;28;19924;-68
2023/03/23 04:35:53;;;;;;;;;;;10.20;99.90;;;;;;5116465;28;20020;-69
2023/03/23 04:38:20;;;;;;;;;;;10.20;99.90;;;;;;5098348;28;19924;-69
2023/03/23 04:40:46;;;;;;;;;;;10.20;99.90;;;;;;5115862;28;20015;-68
2023/03/23 04:43:12;;;;;;;;;;;10.20;99.90;;;;;;5116152;28;20360;-69
2023/03/23 04:45:41;;;;;;;;;;;10.20;99.90;;;;;;5115528;28;20457;-67
2023/03/23 04:48:07;;;;;;;;;;;10.20;99.90;;;;;;5116172;28;20351;-67
2023/03/23 04:50:34;;;;;;;;;;;10.10;99.90;;;;;;5115276;28;20250;-67
2023/03/23 04:53:03;;;;;;;;;;;10.10;99.90;;;;;;5115908;28;19934;-67
2023/03/23 04:55:36;;;;;;;;;;;10.20;99.90;;;;;;5115473;28;20034;-68
2023/03/23 04:58:03;;;;;;;;;;;10.10;99.90;;;;;;5115928;28;19977;-66
2023/03/23 05:00:28;;;;;;;;;;;10.10;99.90;;;;;;5097234;28;19924;-67
2023/03/23 05:02:55;;;;;;;;;;;10.00;99.90;;;;;;5115644;28;19968;-68
2023/03/23 05:05:21;;;;;;;;;;;10.10;99.90;;;;;;5115259;28;19923;-67
2023/03/23 05:07:47;;;;;;;;;;;10.00;99.90;;;;;;5097429;28;20079;-66
2023/03/23 05:10:14;;;;;;;;;;;10.00;99.90;;;;;;5115553;28;20515;-66
2023/03/23 05:12:39;;;;;;;;;;;10.00;99.90;;;;;;5115141;28;19924;-66
2023/03/23 05:15:06;;;;;;;;;;;10.00;99.90;;;;;;5115495;28;20386;-66
2023/03/23 05:17:32;;;;;;;;;;;10.00;99.90;;;;;;5097006;28;20022;-67
2023/03/23 05:19:58;;;;;;;;;;;10.00;99.90;;;;;;5114533;28;20395;-67
2023/03/23 05:22:26;;;;;;;;;;;10.00;99.90;;;;;;5080298;28;20032;-66
2023/03/23 05:24:52;;;;;;;;;;;10.00;99.90;;;;;;5114446;28;20496;-66
2023/03/23 05:27:18;;;;;;;;;;;10.00;99.90;;;;;;5113992;28;19930;-67
2023/03/23 05:29:51;;;;;;;;;;;10.10;99.90;;;;;;5114529;28;19923;-67
2023/03/23 05:32:17;;;;;;;;;;;10.10;99.90;;;;;;5097081;28;20376;-66
2023/03/23 05:34:43;;;;;;;;;;;10.20;99.90;;;;;;5114521;28;19924;-66
2023/03/23 05:37:09;;;;;;;;;;;10.20;99.90;;;;;;5114925;28;19928;-66
2023/03/23 05:39:35;;;;;;;;;;;10.20;99.90;;;;;;5096346;28;20272;-67
2023/03/23 05:42:01;;;;;;;;;;;10.20;99.90;;;;;;5114541;28;19924;-66
2023/03/23 05:44:26;;;;;;;;;;;10.20;99.90;;;;;;5114719;28;19928;-66
2023/03/23 05:46:52;;;;;;;;;;;10.20;99.90;;;;;;5079094;28;20011;-67
2023/03/23 05:49:18;;;;;;;;;;;10.20;99.90;;;;;;5114586;28;19928;-67
2023/03/23 05:51:45;;;;;;;;;;;10.30;99.90;;;;;;5114203;28;19930;-67
2023/03/23 05:54:11;;;;;;;;;;;10.30;99.90;;;;;;5114591;28;20294;-66
2023/03/23 05:56:37;;;;;;;;;;;10.30;99.90;;;;;;5114367;28;19928;-66
2023/03/23 05:59:03;;;;;;;;;;;10.30;99.90;;;;;;5096211;28;19924;-66
2023/03/23 06:01:28;;;;;;;;;;;10.20;99.90;;;;;;5114478;28;20315;-66
2023/03/23 06:03:58;;;;;;;;;;;10.30;99.90;;;;;;5095441;28;19928;-67
2023/03/23 06:06:24;;;;;;;;;;;10.20;99.90;;;;;;5114383;28;20292;-66
2023/03/23 06:08:50;;;;;;;;;;;10.20;99.90;;;;;;5113670;28;19976;-67
2023/03/23 06:11:16;;;;;;;;;;;10.20;99.90;;;;;;5095943;28;19928;-66
2023/03/23 06:13:41;;;;;;;;;;;10.30;99.90;;;;;;5095433;28;19927;-66
2023/03/23 06:16:08;;;;;;;;;;;10.30;99.90;;;;;;5113892;28;19924;-67
2023/03/23 06:18:36;;;;;;;;;;;10.30;99.90;;;;;;5113498;28;19924;-66
2023/03/23 06:21:02;;;;;;;;;;;10.30;99.90;;;;;;5113532;28;20042;-66
2023/03/23 06:23:28;;;;;;;;;;;10.30;99.90;;;;;;5113855;28;19930;-66
2023/03/23 06:25:58;;;;;;;;;;;10.40;99.90;;;;;;5113087;28;20385;-66
2023/03/23 06:28:24;;;;;;;;;;;10.40;99.90;;;;;;5095916;28;20288;-66
2023/03/23 06:30:50;;;;;;;;;;;10.40;99.90;;;;;;5113153;28;19924;-66
2023/03/23 06:33:17;;;;;;;;;;;10.40;99.90;;;;;;5113721;28;20018;-66
2023/03/23 06:35:43;;;;;;;;;;;10.40;99.90;;;;;;5113327;28;20262;-66
2023/03/23 06:38:08;;;;;;;;;;;10.40;99.90;;;;;;5113619;28;19930;-67
2023/03/23 06:40:35;;;;;;;;;;;10.40;99.90;;;;;;5113453;28;20347;-66
2023/03/23 06:43:02;;;;;;;;;;;10.40;99.90;;;;;;5113228;28;20500;-66
2023/03/23 06:45:28;;;;;;;;;;;10.40;99.90;;;;;;5113536;28;20357;-66
2023/03/23 06:47:53;;;;;;;;;;;10.40;99.90;;;;;;5094741;28;19970;-66
2023/03/23 06:50:19;;;;;;;;;;;10.30;99.90;;;;;;5113323;28;19924;-65
2023/03/23 06:52:46;;;;;;;;;;;10.30;99.90;;;;;;5112888;28;20365;-67
2023/03/23 06:55:13;;;;;;;;;;;10.20;99.90;;;;;;5113328;28;19969;-66
2023/03/23 06:57:38;;;;;;;;;;;10.30;99.90;;;;;;5113306;28;19978;-66
2023/03/23 07:00:13;;;;;;;;;;;10.20;99.90;;;;;;5112924;28;19970;-66
2023/03/23 07:02:42;;;;;;;;;;;10.20;99.90;;;;;;5113285;28;19928;-65
2023/03/23 07:05:09;;;;;;;;;;;10.20;99.90;;;;;;5094058;28;19931;-66
2023/03/23 07:07:35;;;;;;;;;;;10.10;99.90;;;;;;5112528;28;20361;-66
2023/03/23 07:10:02;;;;;;;;;;;10.10;99.90;;;;;;5094325;28;19923;-65
2023/03/23 07:12:28;;;;;;;;;;;10.00;99.90;;;;;;5113088;28;19930;-65
2023/03/23 07:14:54;;;;;;;;;;;10.10;99.90;;;;;;5112805;28;19971;-66
2023/03/23 07:17:20;;;;;;;;;;;10.10;99.90;;;;;;5113256;28;20441;-66
2023/03/23 07:19:45;;;;;;;;;;;10.10;99.90;;;;;;5113060;28;19976;-67
2023/03/23 07:22:11;;;;;;;;;;;10.10;99.90;;;;;;5094556;28;19924;-65
2023/03/23 07:24:37;;;;;;;;;;;10.20;99.90;;;;;;5112515;28;19976;-66
2023/03/23 07:27:02;;;;;;;;;;;10.20;99.90;;;;;;5112669;28;19968;-65
2023/03/23 07:29:28;;;;;;;;;;;10.30;99.90;;;;;;5094795;28;20373;-66
2023/03/23 07:31:54;;;;;;;;;;;10.30;99.90;;;;;;5112441;28;19924;-66
2023/03/23 07:34:20;;;;;;;;;;;10.30;99.90;;;;;;5094796;28;19931;-65
2023/03/23 07:36:46;;;;;;;;;;;10.30;99.90;;;;;;5112842;28;19924;-65
2023/03/23 07:39:12;;;;;;;;;;;10.40;99.90;;;;;;5112354;28;19923;-66
2023/03/23 07:41:37;;;;;;;;;;;10.50;99.90;;;;;;5112805;28;19928;-65
2023/03/23 07:44:04;;;;;;;;;;;10.90;99.90;;;;;;5112318;28;19924;-66
2023/03/23 07:46:30;;;;;;;;;;;11.60;99.90;;;;;;5112608;28;19979;-66
2023/03/23 07:48:56;;;;;;;;;;;12.50;99.90;;;;;;5111863;28;19924;-67
2023/03/23 07:51:22;;;;;;;;;;;13.30;99.90;;;;;;5112794;28;19924;-67
2023/03/23 07:53:47;;;;;;;;;;;13.70;99.90;;;;;;5112592;28;19924;-66
2023/03/23 07:56:14;;;;;;;;;;;13.90;99.90;;;;;;5112529;28;19924;-68
2023/03/23 07:58:41;;;;;;;;;;;13.60;99.90;;;;;;5094487;28;19950;-65
2023/03/23 08:01:07;;;;;;;;;;;13.30;99.90;;;;;;5112105;28;19942;-66
2023/03/23 08:03:32;;;;;;;;;;;13.10;99.90;;;;;;5111880;28;19924;-66
2023/03/23 08:05:59;;;;;;;;;;;12.90;99.90;;;;;;5076969;28;19924;-66
2023/03/23 08:08:24;;;;;;;;;;;12.80;99.90;;;;;;5112309;28;19924;-66
2023/03/23 08:10:50;;;;;;;;;;;12.80;99.90;;;;;;5112581;28;19923;-66
2023/03/23 08:13:16;;;;;;;;;;;12.60;99.90;;;;;;5112189;28;20376;-66
2023/03/23 08:15:43;;;;;;;;;;;12.50;99.90;;;;;;5112551;28;19975;-66
2023/03/23 08:18:09;;;;;;;;;;;12.40;99.90;;;;;;5111976;28;19923;-67
2023/03/23 08:20:35;;;;;;;;;;;12.40;99.90;;;;;;5112532;28;20377;-66
2023/03/23 08:23:02;;;;;;;;;;;12.40;99.90;;;;;;5094105;28;19970;-65
2023/03/23 08:25:29;;;;;;;;;;;12.80;99.90;;;;;;5111642;28;20380;-66
2023/03/23 08:27:55;;;;;;;;;;;13.20;99.90;;;;;;5111948;28;19923;-68
2023/03/23 08:30:22;;;;;;;;;;;13.60;99.90;;;;;;5112306;28;19977;-71
2023/03/23 08:32:49;;;;;;;;;;;13.70;99.90;;;;;;5112138;28;19923;-66
2023/03/23 08:35:15;;;;;;;;;;;13.70;99.90;;;;;;5111557;28;20380;-66
2023/03/23 08:37:44;;;;;;;;;;;13.70;99.90;;;;;;5094180;28;19931;-66
2023/03/23 08:40:10;;;;;;;;;;;13.60;99.90;;;;;;5112124;28;19924;-67
2023/03/23 08:42:37;;;;;;;;;;;13.40;99.90;;;;;;5094506;28;20399;-66
2023/03/23 08:45:04;;;;;;;;;;;13.70;99.90;;;;;;5094152;28;19924;-67
2023/03/23 08:47:29;;;;;;;;;;;14.40;99.90;;;;;;5094023;28;19996;-66
2023/03/23 08:49:55;;;;;;;;;;;15.00;99.90;;;;;;5112341;28;19990;-66
2023/03/23 08:52:20;;;;;;;;;;;15.10;99.90;;;;;;5112084;28;19976;-67
2023/03/23 08:54:47;;;;;;;;;;;15.30;99.90;;;;;;5077266;28;19927;-67
2023/03/23 08:57:14;;;;;;;;;;;15.10;99.90;;;;;;5111623;28;20469;-66
2023/03/23 08:59:40;;;;;;;;;;;15.10;99.90;;;;;;5112247;28;19924;-67
2023/03/23 09:02:06;;;;;;;;;;;15.70;99.90;;;;;;5113737;28;19959;-67
2023/03/23 09:04:32;;;;;;;;;;;15.90;99.90;;;;;;5097587;28;19924;-66
2023/03/23 09:06:57;;;;;;;;;;;15.70;99.90;;;;;;5097685;28;20395;-66
2023/03/23 09:09:23;;;;;;;;;;;15.40;99.90;;;;;;5115288;28;20373;-66
2023/03/23 09:11:49;;;;;;;;;;;15.10;99.90;;;;;;5115879;28;19923;-66
2023/03/23 09:14:14;;;;;;;;;;;15.10;99.90;;;;;;5097140;28;19958;-67
2023/03/23 09:16:40;;;;;;;;;;;15.30;99.90;;;;;;5115738;28;19975;-66
2023/03/23 09:19:08;;;;;;;;;;;15.40;99.90;;;;;;5115280;28;19927;-66
2023/03/23 09:21:34;;;;;;;;;;;15.30;99.90;;;;;;5115546;28;19935;-65
2023/03/23 09:24:01;;;;;;;;;;;15.00;99.90;;;;;;5115113;28;19924;-66
2023/03/23 09:26:27;;;;;;;;;;;14.70;99.90;;;;;;5115356;28;19927;-66
2023/03/23 09:28:53;;;;;;;;;;;14.60;99.90;;;;;;5115303;28;19924;-66
2023/03/23 09:31:22;;;;;;;;;;;14.40;99.90;;;;;;5096691;28;19924;-66
2023/03/23 09:33:51;;;;;;;;;;;14.30;99.90;;;;;;5114296;28;19924;-67
2023/03/23 09:36:18;;;;;;;;;;;14.40;99.90;;;;;;5114929;28;19923;-67
2023/03/23 09:38:45;;;;;;;;;;;14.30;99.90;;;;;;5115074;28;20000;-66
2023/03/23 09:41:30;;;;;;;;;;;14.00;99.90;;;;;;5096918;28;19920;-66
2023/03/23 09:43:56;;;;;;;;;;;13.90;99.90;;;;;;5115286;28;19927;-66
2023/03/23 09:46:40;;;;;;;;;;;13.60;99.90;;;;;;5114655;28;20396;-66
2023/03/23 09:49:15;;;;;;;;;;;13.30;99.90;;;;;;5114726;28;20060;-67
2023/03/23 09:51:40;;;;;;;;;;;13.10;99.90;;;;;;5115231;28;19931;-66
2023/03/23 09:54:25;;;;;;;;;;;13.00;99.90;;;;;;5096364;28;19927;-68
2023/03/23 09:56:51;;;;;;;;;;;13.00;99.90;;;;;;5114852;28;19923;-67
2023/03/23 09:59:20;;;;;;;;;;;13.10;99.90;;;;;;5114279;28;19953;-68
2023/03/23 10:01:50;;;;;;;;;;;13.30;99.90;;;;;;5114974;28;20035;-68
2023/03/23 10:04:24;;;;;;;;;;;13.50;99.90;;;;;;5114448;28;19977;-66
2023/03/23 10:06:50;;;;;;;;;;;13.70;99.90;;;;;;5096267;28;19971;-68
2023/03/23 10:09:18;;;;;;;;;;;13.90;99.90;;;;;;5095911;28;20019;-69
2023/03/23 10:12:02;;;;;;;;;;;14.10;99.90;;;;;;5096297;28;20297;-70
2023/03/23 10:14:47;;;;;;;;;;;14.30;99.90;;;;;;5079435;28;19924;-69
2023/03/23 10:17:24;;;;;;;;;;;14.40;99.90;;;;;;5095461;28;20031;-69
2023/03/23 10:20:08;;;;;;;;;;;14.50;99.90;;;;;;5113989;28;20412;-69
2023/03/23 10:22:37;;;;;;;;;;;14.60;99.90;;;;;;5114106;28;19931;-68
2023/03/23 10:25:12;;;;;;;;;;;14.70;99.90;;;;;;5095949;28;20275;-69
2023/03/23 10:27:58;;;;;;;;;;;14.70;99.90;;;;;;5114073;28;20373;-70
2023/03/23 10:30:29;;;;;;;;;;;14.80;99.90;;;;;;5094821;28;20280;-70
2023/03/23 10:32:57;;;;;;;;;;;14.80;99.90;;;;;;5096207;28;19973;-69
2023/03/23 10:35:29;;;;;;;;;;;14.90;99.90;;;;;;5113593;28;19928;-69
2023/03/23 10:38:00;;;;;;;;;;;15.00;99.90;;;;;;5114005;28;19931;-70
2023/03/23 10:40:29;;;;;;;;;;;14.90;99.90;;;;;;5095381;28;19927;-69
2023/03/23 10:42:55;;;;;;;;;;;14.80;99.90;;;;;;5095860;28;19949;-70
2023/03/23 10:45:24;;;;;;;;;;;14.80;99.90;;;;;;5113378;28;19919;-68
2023/03/23 10:47:59;;;;;;;;;;;14.70;99.90;;;;;;5095433;28;20326;-69
2023/03/23 10:50:33;;;;;;;;;;;14.70;99.90;;;;;;5113584;28;19931;-70
2023/03/23 10:53:00;;;;;;;;;;;14.50;99.90;;;;;;5078800;28;19923;-69
2023/03/23 10:55:35;;;;;;;;;;;14.40;99.90;;;;;;5078518;28;20380;-70
2023/03/23 10:58:02;;;;;;;;;;;14.30;99.90;;;;;;5111760;28;19968;-70
2023/03/23 11:00:28;;;;;;;;;;;14.40;99.90;;;;;;5075138;28;20360;-70
2023/03/23 11:02:58;;;;;;;;;;;14.40;99.90;;;;;;5094662;28;19934;-71
2023/03/23 11:05:32;;;;;;;;;;;14.30;99.90;;;;;;5093897;28;19930;-69
2023/03/23 11:07:59;;;;;;;;;;;14.30;99.90;;;;;;5113431;28;19923;-70
2023/03/23 11:10:26;;;;;;;;;;;14.20;99.90;;;;;;5111884;28;19923;-70
2023/03/23 11:12:52;;;;;;;;;;;14.20;99.90;;;;;;5078375;28;19924;-70
2023/03/23 11:15:18;;;;;;;;;;;14.60;99.90;;;;;;5094490;28;19930;-69
2023/03/23 11:17:55;;;;;;;;;;;14.10;99.90;;;;;;5113111;28;20015;-72
2023/03/23 11:20:21;;;;;;;;;;;14.10;99.90;;;;;;5093686;28;20357;-72
2023/03/23 11:22:47;;;;;;;;;;;14.00;99.90;;;;;;5113019;28;19935;-72
2023/03/23 11:25:13;;;;;;;;;;;14.00;99.90;;;;;;5094060;28;20490;-72
2023/03/23 11:27:40;;;;;;;;;;;14.10;99.90;;;;;;5093968;28;20011;-72
2023/03/23 11:30:11;;;;;;;;;;;14.20;99.90;;;;;;5094941;28;20086;-72
2023/03/23 11:32:37;;;;;;;;;;;14.30;99.90;;;;;;5112305;28;19927;-72
2023/03/23 11:35:04;;;;;;;;;;;14.40;99.90;;;;;;5112929;28;20280;-73
2023/03/23 11:38:06;;;;;;;;;;;14.40;99.90;;;;;;5094747;28;19976;-72
2023/03/23 11:40:31;;;;;;;;;;;14.50;99.90;;;;;;5041386;28;19980;-72
2023/03/23 11:42:59;;;;;;;;;;;14.60;99.90;;;;;;5112785;28;20306;-72
2023/03/23 11:45:25;;;;;;;;;;;14.70;99.90;;;;;;5112342;28;19992;-72
2023/03/23 11:48:02;;;;;;;;;;;14.70;99.90;;;;;;5094609;28;20373;-72
2023/03/23 11:50:31;;;;;;;;;;;14.80;99.90;;;;;;5112416;28;19924;-72
2023/03/23 11:53:11;;;;;;;;;;;14.90;99.90;;;;;;5112657;28;19935;-72
2023/03/23 11:55:57;;;;;;;;;;;15.00;99.90;;;;;;5112378;28;19931;-72
2023/03/23 11:58:23;;;;;;;;;;;15.10;99.90;;;;;;5093395;28;19924;-72
2023/03/23 12:00:53;;;;;;;;;;;15.10;99.90;;;;;;5112791;28;19946;-73
2023/03/23 12:03:34;;;;;;;;;;;14.90;99.90;;;;;;5094436;28;19931;-72
2023/03/23 12:06:06;;;;;;;;;;;14.90;99.90;;;;;;5112667;28;19924;-72
2023/03/23 12:08:44;;;;;;;;;;;14.80;99.90;;;;;;5112275;28;19930;-74
2023/03/23 12:11:16;;;;;;;;;;;14.90;99.90;;;;;;5112503;28;20361;-71
2023/03/23 12:14:01;;;;;;;;;;;15.00;99.90;;;;;;5111994;28;19961;-72
2023/03/23 12:16:48;;;;;;;;;;;15.10;99.90;;;;;;5112256;28;19979;-71
2023/03/23 12:19:20;;;;;;;;;;;15.20;99.90;;;;;;5112336;28;20040;-70
2023/03/23 12:21:50;;;;;;;;;;;15.30;99.90;;;;;;5112265;28;20293;-68
2023/03/23 12:24:29;;;;;;;;;;;15.30;99.90;;;;;;5112266;28;20382;-68
2023/03/23 12:27:16;;;;;;;;;;;15.30;99.90;;;;;;5112291;28;19924;-67
2023/03/23 12:29:44;;;;;;;;;;;15.30;99.90;;;;;;5093356;28;19925;-68
2023/03/23 12:32:28;;;;;;;;;;;15.40;99.90;;;;;;5112426;28;19994;-67
2023/03/23 12:34:54;;;;;;;;;;;15.40;99.90;;;;;;5112363;28;19986;-67
2023/03/23 12:37:38;;;;;;;;;;;15.50;99.90;;;;;;5116323;28;19967;-67
2023/03/23 12:40:17;;;;;;;;;;;15.50;99.90;;;;;;5116206;28;19924;-67
2023/03/23 12:42:54;;;;;;;;;;;15.50;99.90;;;;;;5115899;28;19924;-68
2023/03/23 12:45:44;;;;;;;;;;;15.40;99.90;;;;;;5116088;28;19924;-68
2023/03/23 12:48:12;;;;;;;;;;;15.30;99.90;;;;;;5097984;28;19954;-68
2023/03/23 12:50:45;;;;;;;;;;;15.10;99.90;;;;;;5115121;28;19923;-67
2023/03/23 12:53:11;;;;;;;;;;;15.10;99.90;;;;;;5097883;28;20362;-67
2023/03/23 12:55:44;;;;;;;;;;;15.10;99.90;;;;;;5115417;28;20340;-67
2023/03/23 12:58:15;;;;;;;;;;;15.10;99.90;;;;;;5115759;28;19924;-67
2023/03/23 13:00:53;;;;;;;;;;;15.10;99.90;;;;;;5080497;28;19924;-66
2023/03/23 13:03:26;;;;;;;;;;;15.00;99.90;;;;;;5115871;28;19928;-67
2023/03/23 13:06:00;;;;;;;;;;;14.90;99.90;;;;;;5115221;28;19930;-69
2023/03/23 13:08:30;;;;;;;;;;;14.80;99.90;;;;;;5115859;28;20336;-68
2023/03/23 13:10:59;;;;;;;;;;;14.80;99.90;;;;;;5115804;28;19923;-67
2023/03/23 13:13:41;;;;;;;;;;;14.80;99.90;;;;;;5115664;28;20007;-68
2023/03/23 13:16:36;;;;;;;;;;;14.90;99.90;;;;;;5115526;28;19978;-68
2023/03/23 13:19:04;;;;;;;;;;;14.90;99.90;;;;;;5075962;28;20373;-68
2023/03/23 13:21:31;;;;;;;;;;;14.80;99.90;;;;;;5115264;28;19947;-69
2023/03/23 13:24:02;;;;;;;;;;;14.80;99.90;;;;;;5097510;28;20469;-66
2023/03/23 13:26:29;;;;;;;;;;;14.80;99.90;;;;;;5114967;28;20022;-67
2023/03/23 13:29:07;;;;;;;;;;;14.80;99.90;;;;;;5114940;28;19924;-68
2023/03/23 13:31:35;;;;;;;;;;;14.70;99.90;;;;;;5114841;28;20389;-67
2023/03/23 13:34:20;;;;;;;;;;;14.80;99.90;;;;;;5115118;28;19971;-68
2023/03/23 13:36:52;;;;;;;;;;;14.80;99.90;;;;;;5114647;28;19931;-68
2023/03/23 13:39:19;;;;;;;;;;;14.80;99.90;;;;;;5114906;28;20402;-68
2023/03/23 13:41:49;;;;;;;;;;;14.80;99.90;;;;;;5114428;28;19923;-68
2023/03/23 13:44:24;;;;;;;;;;;14.80;99.90;;;;;;5114949;28;19950;-68
2023/03/23 13:46:58;;;;;;;;;;;14.80;99.90;;;;;;5113730;28;19927;-69
2023/03/23 13:49:25;;;;;;;;;;;14.70;99.90;;;;;;5096775;28;20026;-68
2023/03/23 13:51:51;;;;;;;;;;;14.50;99.90;;;;;;5079543;28;19973;-67
2023/03/23 13:54:40;;;;;;;;;;;14.60;99.90;;;;;;5115028;28;19928;-68
2023/03/23 13:57:21;;;;;;;;;;;14.60;99.90;;;;;;5101485;28;20496;-68
2023/03/23 13:59:48;;;;;;;;;;;14.60;99.90;;;;;;5114098;28;19990;-68
2023/03/23 14:02:34;;;;;;;;;;;14.70;99.90;;;;;;5114498;28;19928;-68
2023/03/23 14:05:33;;;;;;;;;;;14.70;99.90;;;;;;5114378;28;19931;-68
2023/03/23 14:08:03;;;;;;;;;;;14.90;99.90;;;;;;5041285;28;20280;-69
2023/03/23 14:10:43;;;;;;;;;;;14.90;99.90;;;;;;5096555;28;19924;-69
2023/03/23 14:13:15;;;;;;;;;;;15.00;99.90;;;;;;5114416;28;20022;-67
2023/03/23 14:15:43;;;;;;;;;;;15.00;99.90;;;;;;5096245;28;20339;-68
2023/03/23 14:18:13;;;;;;;;;;;15.00;99.90;;;;;;5114394;28;19927;-68
2023/03/23 14:20:39;;;;;;;;;;;15.00;99.90;;;;;;5114033;28;19989;-70
2023/03/23 14:23:05;;;;;;;;;;;15.00;99.90;;;;;;5113900;28;20373;-68
2023/03/23 14:25:34;;;;;;;;;;;15.00;99.90;;;;;;5078984;28;19923;-68
2023/03/23 14:27:59;;;;;;;;;;;15.00;99.90;;;;;;5095483;28;20203;-68